createdAt,value
2019-03-22T00:03:03.110Z,209.90
2019-03-22T00:06:11.762Z,200.00
2019-03-22T00:09:20.511Z,188.67
2019-03-22T00:12:29.359Z,202.40
2019-03-22T00:15:37.967Z,173.47
2019-03-22T00:18:46.486Z,180.17
2019-03-22T00:21:55.069Z,192.47
2019-03-22T00:25:03.673Z,185.00
2019-03-22T00:28:12.361Z,183.60
2019-03-22T00:31:21.022Z,182.83
2019-03-22T00:34:29.611Z,169.50
2019-03-22T00:37:38.243Z,157.63
2019-03-22T00:40:46.855Z,157.07
2019-03-22T00:43:55.377Z,174.73
2019-03-22T00:47:03.913Z,176.37
2019-03-22T00:50:13.090Z,160.70
2019-03-22T00:53:21.639Z,154.17
2019-03-22T00:56:30.241Z,138.20
2019-03-22T00:59:38.959Z,137.47
2019-03-22T01:02:47.705Z,123.50
2019-03-22T01:05:56.245Z,125.03
2019-03-22T01:09:05.683Z,114.63
2019-03-22T01:12:14.324Z,105.50
2019-03-22T01:15:22.909Z,103.30
2019-03-22T01:18:31.506Z,95.87
2019-03-22T01:21:41.157Z,95.40
2019-03-22T01:24:49.810Z,87.40
2019-03-22T01:27:59.373Z,88.03
2019-03-22T01:31:07.900Z,79.50
2019-03-22T01:34:16.493Z,74.50
2019-03-22T01:37:25.096Z,84.23
2019-03-22T01:40:34.903Z,83.50
2019-03-22T01:43:45.965Z,81.33
2019-03-22T01:46:54.542Z,86.20
2019-03-22T01:50:03.052Z,93.37
2019-03-22T01:53:11.640Z,81.37
2019-03-22T01:56:20.171Z,80.27
2019-03-22T01:59:28.891Z,73.10
2019-03-22T02:02:37.683Z,79.40
2019-03-22T02:05:46.267Z,68.60
2019-03-22T02:08:54.889Z,78.80
2019-03-22T02:12:03.602Z,80.20
2019-03-22T02:15:15.249Z,87.97
2019-03-22T02:18:23.842Z,84.53
2019-03-22T02:21:32.365Z,100.60
2019-03-22T02:24:41.483Z,92.20
2019-03-22T02:27:50.041Z,100.27
2019-03-22T02:30:58.626Z,122.03
2019-03-22T02:34:07.154Z,105.87
2019-03-22T02:37:15.791Z,103.67
2019-03-22T02:40:24.424Z,122.43
2019-03-22T02:43:33.005Z,123.67
2019-03-22T02:46:41.580Z,116.80
2019-03-22T02:49:50.286Z,121.03
2019-03-22T02:52:58.781Z,119.93
2019-03-22T02:56:07.725Z,124.83
2019-03-22T02:59:16.426Z,120.50
2019-03-22T03:02:25.161Z,121.03
2019-03-22T03:05:33.817Z,134.47
2019-03-22T03:08:44.813Z,117.37
2019-03-22T03:11:53.363Z,116.50
2019-03-22T03:15:02.169Z,111.40
2019-03-22T03:18:10.827Z,111.23
2019-03-22T03:21:19.408Z,128.97
2019-03-22T03:24:27.977Z,121.93
2019-03-22T03:27:36.465Z,118.30
2019-03-22T03:30:45.002Z,122.90
2019-03-22T03:33:53.498Z,106.67
2019-03-22T03:37:02.027Z,113.17
2019-03-22T03:40:11.482Z,114.87
2019-03-22T03:43:20.076Z,147.27
2019-03-22T03:46:28.560Z,162.27
2019-03-22T03:49:37.076Z,173.03
2019-03-22T03:52:45.568Z,161.27
2019-03-22T03:55:54.098Z,163.93
2019-03-22T03:59:02.604Z,125.50
2019-03-22T04:02:11.137Z,103.13
2019-03-22T04:05:19.673Z,106.60
2019-03-22T04:08:28.368Z,104.83
2019-03-22T04:11:36.896Z,132.80
2019-03-22T04:14:45.510Z,105.67
2019-03-22T04:17:54.030Z,117.90
2019-03-22T04:21:02.573Z,121.47
2019-03-22T04:24:11.183Z,94.57
2019-03-22T04:27:19.719Z,82.10
2019-03-22T04:30:28.279Z,103.50
2019-03-22T04:33:36.747Z,109.37
2019-03-22T04:36:45.306Z,137.20
2019-03-22T04:39:54.405Z,125.73
2019-03-22T04:43:02.961Z,111.30
2019-03-22T04:46:14.222Z,87.63
2019-03-22T04:49:24.027Z,92.17
2019-03-22T04:52:32.644Z,90.90
2019-03-22T04:55:43.333Z,92.43
2019-03-22T04:58:53.832Z,94.60
2019-03-22T05:02:04.099Z,90.03
2019-03-22T05:05:13.904Z,91.47
2019-03-22T05:08:23.390Z,87.60
2019-03-22T05:11:32.290Z,90.90
2019-03-22T05:14:43.575Z,85.23
2019-03-22T05:17:52.586Z,91.33
2019-03-22T05:21:01.821Z,95.77
2019-03-22T05:24:10.778Z,111.77
2019-03-22T05:27:20.358Z,119.93
2019-03-22T05:31:31.476Z,115.97
2019-03-22T05:34:40.148Z,140.53
2019-03-22T05:37:48.713Z,134.23
2019-03-22T05:40:57.218Z,116.77
2019-03-22T05:44:06.102Z,134.90
2019-03-22T05:47:14.692Z,124.37
2019-03-22T05:50:23.276Z,128.57
2019-03-22T05:53:31.799Z,129.17
2019-03-22T05:56:40.393Z,145.53
2019-03-22T05:59:48.980Z,115.07
2019-03-22T06:02:57.859Z,118.17
2019-03-22T06:06:07.524Z,120.63
2019-03-22T06:09:16.058Z,93.17
2019-03-22T06:12:24.693Z,101.33
2019-03-22T06:15:33.287Z,106.37
2019-03-22T06:18:42.068Z,94.30
2019-03-22T06:21:50.675Z,131.20
2019-03-22T06:24:59.401Z,108.27
2019-03-22T06:28:07.962Z,97.40
2019-03-22T06:31:16.477Z,98.00
2019-03-22T06:34:25.509Z,93.93
2019-03-22T06:37:34.003Z,95.63
2019-03-22T06:40:42.675Z,102.87
2019-03-22T06:43:51.193Z,139.10
2019-03-22T06:46:59.697Z,111.30
2019-03-22T06:50:08.799Z,150.23
2019-03-22T06:53:17.342Z,177.57
2019-03-22T06:56:25.844Z,172.47
2019-03-22T06:59:34.450Z,150.47
2019-03-22T07:02:43.307Z,124.63
2019-03-22T07:05:52.242Z,129.00
2019-03-22T07:09:01.060Z,155.75
2019-03-22T07:12:09.806Z,127.93
2019-03-22T07:15:18.366Z,130.63
2019-03-22T07:18:26.989Z,143.43
2019-03-22T07:21:35.525Z,157.13
2019-03-22T07:24:44.076Z,146.27
2019-03-22T07:27:52.653Z,151.67
2019-03-22T07:31:01.296Z,159.67
2019-03-22T07:34:09.867Z,161.90
2019-03-22T07:37:18.444Z,158.93
2019-03-22T07:40:26.981Z,151.97
2019-03-22T07:43:35.478Z,158.73
2019-03-22T07:46:43.970Z,141.90
2019-03-22T07:49:52.727Z,144.27
2019-03-22T07:53:01.283Z,142.37
2019-03-22T07:56:09.836Z,149.87
2019-03-22T07:59:19.425Z,148.90
2019-03-22T08:02:27.938Z,155.97
2019-03-22T08:05:36.542Z,159.67
2019-03-22T08:08:45.158Z,136.80
2019-03-22T08:11:53.672Z,131.90
2019-03-22T08:15:02.250Z,140.27
2019-03-22T08:18:11.834Z,126.73
2019-03-22T08:21:20.544Z,127.43
2019-03-22T08:24:29.225Z,106.30
2019-03-22T08:27:37.733Z,101.17
2019-03-22T08:30:46.217Z,91.67
2019-03-22T08:33:54.749Z,101.80
2019-03-22T08:37:03.317Z,86.50
2019-03-22T08:40:11.999Z,85.30
2019-03-22T08:43:20.704Z,80.27
2019-03-22T08:46:29.210Z,65.10
2019-03-22T08:49:37.799Z,68.13
2019-03-22T08:52:46.571Z,63.30
2019-03-22T08:55:56.255Z,55.90
2019-03-22T08:59:04.675Z,59.63
2019-03-22T09:02:13.217Z,56.97
2019-03-22T09:05:21.705Z,55.23
2019-03-22T09:08:31.723Z,54.97
2019-03-22T09:11:40.365Z,52.13
2019-03-22T09:14:48.911Z,57.53
2019-03-22T09:17:57.625Z,75.47
2019-03-22T09:21:06.333Z,76.27
2019-03-22T09:24:14.929Z,62.63
2019-03-22T09:27:23.554Z,61.90
2019-03-22T09:30:32.132Z,63.30
2019-03-22T09:33:40.811Z,61.90
2019-03-22T09:36:49.375Z,63.37
2019-03-22T09:39:58.000Z,67.17
2019-03-22T09:43:06.579Z,82.63
2019-03-22T09:46:15.762Z,68.10
2019-03-22T09:49:24.309Z,56.30
2019-03-22T09:52:33.779Z,49.87
2019-03-22T09:55:42.506Z,56.13
2019-03-22T09:58:51.129Z,51.63
2019-03-22T10:01:59.643Z,59.93
2019-03-22T10:05:09.245Z,56.27
2019-03-22T10:08:19.410Z,49.40
2019-03-22T10:11:28.045Z,49.13
2019-03-22T10:14:37.898Z,51.83
2019-03-22T10:17:46.562Z,57.07
2019-03-22T10:20:55.074Z,58.83
2019-03-22T10:24:03.692Z,60.07
2019-03-22T10:27:12.328Z,79.10
2019-03-22T10:30:21.070Z,64.43
2019-03-22T10:33:29.779Z,69.47
2019-03-22T10:36:38.602Z,65.30
2019-03-22T10:39:48.157Z,68.67
2019-03-22T10:42:57.412Z,51.77
2019-03-22T10:46:08.095Z,63.80
2019-03-22T10:49:17.062Z,58.77
2019-03-22T10:52:25.757Z,63.33
2019-03-22T10:55:35.699Z,60.40
2019-03-22T10:58:44.347Z,73.40
2019-03-22T11:02:03.087Z,58.93
2019-03-22T11:05:03.102Z,67.83
2019-03-22T11:08:11.736Z,133.70
2019-03-22T11:11:20.429Z,91.17
2019-03-22T11:14:28.960Z,66.33
2019-03-22T11:17:38.115Z,63.03
2019-03-22T11:20:46.776Z,73.93
2019-03-22T11:23:56.516Z,74.33
2019-03-22T11:27:05.403Z,82.40
2019-03-22T11:30:16.622Z,76.57
2019-03-22T11:33:26.366Z,76.40
2019-03-22T11:36:36.758Z,58.50
2019-03-22T11:39:45.688Z,62.30
2019-03-22T11:42:54.200Z,74.23
2019-03-22T11:46:03.074Z,75.33
2019-03-22T11:49:11.840Z,67.93
2019-03-22T11:52:20.621Z,74.23
2019-03-22T11:55:29.133Z,88.07
2019-03-22T11:58:37.791Z,76.63
2019-03-22T12:01:46.646Z,77.90
2019-03-22T12:04:55.272Z,93.70
2019-03-22T12:08:03.983Z,68.53
2019-03-22T12:11:12.811Z,77.67
2019-03-22T12:14:21.735Z,61.10
2019-03-22T12:17:30.469Z,56.53
2019-03-22T12:20:38.935Z,62.33
2019-03-22T12:23:47.454Z,60.60
2019-03-22T12:26:56.282Z,52.90
2019-03-22T12:30:05.282Z,54.57
2019-03-22T12:33:13.973Z,62.00
2019-03-22T12:36:22.587Z,61.03
2019-03-22T12:39:31.102Z,61.83
2019-03-22T12:42:40.285Z,67.13
2019-03-22T12:45:49.013Z,71.90
2019-03-22T12:48:57.689Z,68.00
2019-03-22T12:52:06.426Z,72.63
2019-03-22T12:55:15.448Z,62.80
2019-03-22T12:58:23.989Z,65.73
2019-03-22T13:01:32.485Z,78.00
2019-03-22T13:04:41.005Z,71.00
2019-03-22T13:07:49.773Z,76.93
2019-03-22T13:10:58.261Z,61.07
2019-03-22T13:14:06.933Z,66.13
2019-03-22T13:17:15.521Z,63.70
2019-03-22T13:20:25.590Z,66.93
2019-03-22T13:23:34.198Z,65.83
2019-03-22T13:26:42.853Z,76.17
2019-03-22T13:29:51.477Z,63.93
2019-03-22T13:33:00.247Z,67.67
2019-03-22T13:36:09.125Z,70.00
2019-03-22T13:39:17.674Z,122.10
2019-03-22T13:42:26.328Z,280.97
2019-03-22T13:45:34.845Z,67.17
2019-03-22T13:48:43.446Z,58.43
2019-03-22T13:51:51.973Z,100.43
2019-03-22T13:55:00.519Z,219.17
2019-03-22T13:58:09.166Z,81.20
2019-03-22T14:01:17.682Z,70.70
2019-03-22T14:04:26.357Z,74.37
2019-03-22T14:07:34.857Z,68.17
2019-03-22T14:10:43.575Z,65.53
2019-03-22T14:13:52.074Z,71.17
2019-03-22T14:17:00.866Z,79.90
2019-03-22T14:20:11.497Z,82.10
2019-03-22T14:23:19.816Z,96.27
2019-03-22T14:26:28.492Z,107.40
2019-03-22T14:29:36.962Z,95.00
2019-03-22T14:32:45.607Z,145.03
2019-03-22T14:35:54.163Z,107.03
2019-03-22T14:39:02.912Z,144.93
2019-03-22T14:42:12.004Z,142.13
2019-03-22T14:45:20.559Z,96.67
2019-03-22T14:48:29.078Z,90.07
2019-03-22T14:51:37.839Z,92.70
2019-03-22T14:54:46.381Z,94.23
2019-03-22T14:57:55.059Z,104.00
2019-03-22T15:01:03.764Z,116.67
2019-03-22T15:04:12.315Z,125.60
2019-03-22T15:07:20.854Z,124.97
2019-03-22T15:10:30.088Z,146.43
2019-03-22T15:13:50.541Z,130.63
2019-03-22T15:17:27.274Z,116.17
2019-03-22T15:21:09.693Z,100.60
2019-03-22T15:24:37.487Z,103.80
2019-03-22T15:28:04.971Z,100.13
2019-03-22T15:31:41.761Z,95.73
2019-03-22T15:35:21.993Z,101.17
2019-03-22T15:39:01.490Z,89.90
2019-03-22T15:42:11.841Z,90.70
2019-03-22T15:45:20.429Z,99.77
2019-03-22T15:48:28.981Z,105.70
2019-03-22T15:51:37.507Z,105.00
2019-03-22T15:54:46.119Z,91.73
2019-03-22T15:57:55.968Z,107.00
2019-03-22T16:01:04.935Z,119.90
2019-03-22T16:04:13.601Z,125.13
2019-03-22T16:07:22.149Z,115.12
2019-03-22T16:10:31.110Z,123.35
2019-03-22T16:13:39.719Z,155.80
2019-03-22T16:16:48.217Z,166.73
2019-03-22T16:19:56.845Z,120.30
2019-03-22T16:23:05.493Z,102.40
2019-03-22T16:26:14.034Z,91.40
2019-03-22T16:29:22.651Z,92.47
2019-03-22T16:32:31.202Z,106.93
2019-03-22T16:35:39.835Z,141.40
2019-03-22T16:38:48.497Z,154.03
2019-03-22T16:41:57.401Z,168.40
2019-03-22T16:45:07.396Z,136.10
2019-03-22T16:48:16.123Z,141.70
2019-03-22T16:51:24.678Z,127.87
2019-03-22T16:54:33.277Z,140.27
2019-03-22T16:57:41.936Z,169.80
2019-03-22T17:00:50.722Z,206.90
2019-03-22T17:04:04.486Z,129.87
2019-03-22T17:07:09.881Z,139.07
2019-03-22T17:10:18.439Z,99.70
2019-03-22T17:13:26.993Z,94.80
2019-03-22T17:16:35.549Z,112.40
2019-03-22T17:19:44.983Z,109.83
2019-03-22T17:22:53.582Z,105.50
2019-03-22T17:26:02.200Z,124.53
2019-03-22T17:29:10.807Z,129.17
2019-03-22T17:32:19.368Z,150.77
2019-03-22T17:35:27.995Z,154.03
2019-03-22T17:38:36.671Z,160.00
2019-03-22T17:41:45.276Z,159.97
2019-03-22T17:44:54.004Z,195.03
2019-03-22T17:48:02.564Z,187.97
2019-03-22T17:51:11.208Z,173.23
2019-03-22T17:54:19.770Z,183.43
2019-03-22T17:57:28.489Z,188.53
2019-03-22T18:00:38.326Z,213.03
2019-03-22T18:03:46.918Z,197.53
2019-03-22T18:06:56.475Z,165.30
2019-03-22T18:10:05.581Z,194.87
2019-03-22T18:13:14.232Z,192.25
2019-03-22T18:16:24.450Z,263.07
2019-03-22T18:19:33.053Z,222.87
2019-03-22T18:22:41.584Z,213.63
2019-03-22T18:25:51.482Z,181.87
2019-03-22T18:29:00.522Z,189.17
2019-03-22T18:32:10.184Z,184.87
2019-03-22T18:35:18.823Z,207.33
2019-03-22T18:38:27.606Z,208.10
2019-03-22T18:41:36.110Z,204.67
2019-03-22T18:44:44.784Z,199.10
2019-03-22T18:47:53.362Z,327.27
2019-03-22T18:51:02.006Z,290.97
2019-03-22T18:54:10.581Z,285.63
2019-03-22T18:57:20.082Z,225.57
2019-03-22T19:00:29.693Z,216.93
2019-03-22T19:03:38.352Z,228.20
2019-03-22T19:06:47.036Z,238.87
2019-03-22T19:09:57.346Z,204.20
2019-03-22T19:13:07.865Z,216.47
2019-03-22T19:16:16.676Z,288.73
2019-03-22T19:19:26.024Z,335.07
2019-03-22T19:22:34.575Z,240.50
2019-03-22T19:25:43.269Z,323.23
2019-03-22T19:28:51.808Z,366.50
2019-03-22T19:32:00.518Z,411.63
2019-03-22T19:35:09.426Z,234.30
2019-03-22T19:38:18.058Z,207.70
2019-03-22T19:41:26.667Z,223.50
2019-03-22T19:44:35.442Z,184.87
2019-03-22T19:47:44.102Z,186.83
2019-03-22T19:50:52.655Z,204.40
2019-03-22T19:54:01.186Z,247.90
2019-03-22T19:57:10.080Z,195.10
2019-03-22T20:00:19.460Z,162.37
2019-03-22T20:03:28.788Z,205.50
2019-03-22T20:06:37.379Z,228.67
2019-03-22T20:09:46.048Z,249.53
2019-03-22T20:12:56.469Z,282.23
2019-03-22T20:16:06.168Z,267.30
2019-03-22T20:19:16.734Z,224.03
2019-03-22T20:22:25.275Z,239.77
2019-03-22T20:25:33.762Z,256.93
2019-03-22T20:28:42.400Z,276.33
2019-03-22T20:31:51.258Z,291.67
2019-03-22T20:34:59.917Z,266.17
2019-03-22T20:38:08.530Z,260.47
2019-03-22T20:41:17.288Z,296.30
2019-03-22T20:44:33.633Z,345.37
2019-03-22T20:47:36.090Z,310.63
2019-03-22T20:50:44.759Z,312.97
2019-03-22T20:53:53.396Z,251.30
2019-03-22T20:57:01.964Z,295.10
2019-03-22T21:00:11.068Z,377.23
2019-03-22T21:03:19.940Z,388.30
2019-03-22T21:06:28.491Z,429.37
2019-03-22T21:09:37.100Z,401.13
2019-03-22T21:12:45.802Z,292.07
2019-03-22T21:15:55.973Z,306.67
2019-03-22T21:19:05.536Z,346.63
2019-03-22T21:22:14.209Z,306.77
2019-03-22T21:25:22.923Z,290.00
2019-03-22T21:28:31.475Z,237.07
2019-03-22T21:31:40.075Z,260.53
2019-03-22T21:34:48.621Z,328.77
2019-03-22T21:37:57.187Z,269.03
2019-03-22T21:41:05.786Z,261.53
2019-03-22T21:44:14.261Z,277.60
2019-03-22T21:47:22.820Z,256.67
2019-03-22T21:50:31.421Z,256.73
2019-03-22T21:53:39.962Z,254.00
2019-03-22T21:56:48.494Z,225.60
2019-03-22T21:59:57.036Z,237.93
2019-03-22T22:03:05.630Z,253.43
2019-03-22T22:06:15.694Z,263.53
2019-03-22T22:09:24.289Z,263.03
2019-03-22T22:12:32.831Z,266.37
2019-03-22T22:15:41.426Z,269.87
2019-03-22T22:18:50.134Z,270.20
2019-03-22T22:21:58.780Z,340.60
2019-03-22T22:25:07.557Z,302.00
2019-03-22T22:28:16.162Z,294.60
2019-03-22T22:31:24.809Z,324.47
2019-03-22T22:34:34.938Z,261.30
2019-03-22T22:37:43.586Z,297.53
2019-03-22T22:40:53.330Z,285.30
2019-03-22T22:44:01.886Z,259.03
2019-03-22T22:47:10.496Z,241.53
2019-03-22T22:50:19.074Z,276.27
2019-03-22T22:53:27.794Z,263.37
2019-03-22T22:56:36.314Z,252.90
2019-03-22T22:59:44.825Z,245.83
2019-03-22T23:02:53.348Z,288.90
2019-03-22T23:06:09.318Z,210.67
2019-03-22T23:09:12.167Z,207.17
2019-03-22T23:12:20.773Z,199.03
2019-03-22T23:15:29.325Z,184.10
2019-03-22T23:18:37.924Z,172.73
2019-03-22T23:21:46.474Z,174.87
2019-03-22T23:24:55.013Z,203.00
2019-03-22T23:28:03.573Z,201.17
2019-03-22T23:31:12.325Z,200.83
2019-03-22T23:34:21.019Z,197.67
2019-03-22T23:37:29.606Z,173.27
2019-03-22T23:40:38.342Z,164.17
2019-03-22T23:43:46.890Z,174.97
2019-03-22T23:46:55.408Z,167.37
2019-03-22T23:50:03.888Z,167.33
2019-03-22T23:53:12.412Z,160.93
2019-03-22T23:56:21.002Z,173.73
2019-03-22T23:59:29.528Z,188.73
